Time;durP1;ratioP1;P1;durP2;ratioP2;P2;SDS_P1;SDS_P2;PMS_P1;PMS_P2;Temp;Humidity;BMP_temperature;BMP_pressure;BME280_temperature;BME280_humidity;BME280_pressure;Samples;Min_cycle;Max_cycle;Signal;HPM_P1;HPM_P2
2022/11/28 00:00:59;;;;;;;11.48;8.25;;;;;;;6.71;100.00;100996.97;5137360;27;20094;-82
2022/11/28 00:03:24;;;;;;;11.68;7.97;;;;;;;6.72;100.00;100999.47;5137194;27;20115;-81
2022/11/28 00:05:51;;;;;;;12.63;8.00;;;;;;;6.73;100.00;100990.88;5137095;27;20486;-82
2022/11/28 00:08:16;;;;;;;13.20;8.23;;;;;;;6.73;100.00;100990.88;5136972;27;20378;-81
2022/11/28 00:10:41;;;;;;;12.05;7.18;;;;;;;6.54;100.00;100949.78;5135315;27;20497;-81
2022/11/28 00:13:07;;;;;;;11.52;7.85;;;;;;;6.52;100.00;100950.78;5136966;27;20027;-81
2022/11/28 00:15:32;;;;;;;10.40;6.68;;;;;;;6.73;100.00;100972.06;5137041;27;20035;-81
2022/11/28 00:17:58;;;;;;;13.25;7.43;;;;;;;6.77;100.00;100983.84;5137118;27;20083;-81
2022/11/28 00:20:23;;;;;;;12.15;6.75;;;;;;;6.78;100.00;100986.34;5136864;27;20474;-81
2022/11/28 00:22:48;;;;;;;10.45;6.88;;;;;;;6.78;100.00;100981.22;5136476;27;20031;-82
2022/11/28 00:25:14;;;;;;;10.95;6.82;;;;;;;6.65;100.00;100956.19;5136606;27;20027;-82
2022/11/28 00:27:39;;;;;;;11.45;6.85;;;;;;;6.82;100.00;100977.63;5118426;27;20110;-81
2022/11/28 00:30:06;;;;;;;10.52;6.90;;;;;;;6.82;100.00;100969.09;5136576;27;20019;-81
2022/11/28 00:32:31;;;;;;;11.68;7.10;;;;;;;6.85;100.00;100969.78;5136577;27;20026;-80
2022/11/28 00:34:56;;;;;;;11.45;6.75;;;;;;;6.82;100.00;100969.94;5136584;27;20417;-80
2022/11/28 00:37:22;;;;;;;11.73;6.80;;;;;;;6.70;100.00;100942.25;5136409;27;20031;-82
2022/11/28 00:39:47;;;;;;;10.15;6.68;;;;;;;6.13;100.00;100846.47;5136220;27;20038;-81
2022/11/28 00:42:13;;;;;;;10.63;6.05;;;;;;;6.93;100.00;100966.88;5136002;27;20091;-80
2022/11/28 00:44:38;;;;;;;9.05;5.88;;;;;;;6.96;100.00;100964.16;5136219;27;20485;-81
2022/11/28 00:47:03;;;;;;;11.95;5.65;;;;;;;6.97;100.00;100965.81;5135969;27;20051;-82
2022/11/28 00:49:29;;;;;;;11.75;6.30;;;;;;;7.00;100.00;100964.88;5136513;27;20110;-81
2022/11/28 00:51:54;;;;;;;10.77;5.10;;;;;;;7.01;100.00;100959.66;5136337;27;20027;-82
2022/11/28 00:54:19;;;;;;;9.15;5.35;;;;;;;6.87;100.00;100928.63;5135981;27;20027;-82
2022/11/28 00:56:45;;;;;;;11.52;5.75;;;;;;;7.06;100.00;100947.44;5136077;27;20027;-77
2022/11/28 00:59:11;;;;;;;8.85;5.32;;;;;;;6.98;100.00;100943.53;5136100;27;20032;-82
2022/11/28 01:01:39;;;;;;;9.60;5.25;;;;;;;7.13;100.00;100959.09;5136046;27;20015;-79
2022/11/28 01:04:07;;;;;;;9.15;5.55;;;;;;;7.15;100.00;100935.91;5136044;27;20390;-81
2022/11/28 01:06:36;;;;;;;9.00;4.90;;;;;;;7.16;100.00;100940.97;5136022;27;20030;-80
2022/11/28 01:09:05;;;;;;;9.60;5.13;;;;;;;6.99;100.00;100912.69;5135993;27;20031;-76
2022/11/28 01:11:31;;;;;;;9.07;5.78;;;;;;;6.97;100.00;100917.03;5135801;27;20530;-80
2022/11/28 01:13:59;;;;;;;8.98;5.47;;;;;;;7.14;100.00;100941.94;5135675;27;20019;-81
2022/11/28 01:16:25;;;;;;;8.27;5.30;;;;;;;6.97;100.00;100917.03;5135856;27;20050;-78
2022/11/28 01:18:51;;;;;;;9.70;5.40;;;;;;;7.16;100.00;100942.69;5135778;27;20019;-81
2022/11/28 01:21:18;;;;;;;9.05;5.78;;;;;;;7.16;100.00;100953.78;5135681;27;20086;-82
2022/11/28 01:23:43;;;;;;;9.25;5.30;;;;;;;7.17;100.00;100949.50;5135814;27;20015;-81
2022/11/28 01:26:14;;;;;;;8.27;5.63;;;;;;;7.18;100.00;100941.75;5135457;27;20470;-79
2022/11/28 01:28:39;;;;;;;8.23;5.32;;;;;;;7.17;100.00;100952.88;5135507;27;20027;-81
2022/11/28 01:31:07;;;;;;;8.98;5.10;;;;;;;7.03;100.00;100918.50;5135412;27;20064;-81
2022/11/28 01:33:33;;;;;;;9.75;5.85;;;;;;;7.14;100.00;100955.59;5133998;27;20466;-82
2022/11/28 01:35:58;;;;;;;8.88;5.40;;;;;;;7.06;100.00;100957.69;5135587;27;20023;-81
2022/11/28 01:38:24;;;;;;;10.73;5.53;;;;;;;6.68;100.00;100908.13;5135456;27;20437;-79
2022/11/28 01:40:50;;;;;;;10.85;5.57;;;;;;;6.65;100.00;100917.69;5133888;27;20042;-81
2022/11/28 01:43:16;;;;;;;8.27;5.57;;;;;;;6.73;100.00;100947.25;5135282;27;20428;-80
2022/11/28 01:45:42;;;;;;;9.55;5.55;;;;;;;6.77;100.00;100960.75;5135103;27;20023;-81
2022/11/28 01:48:12;;;;;;;11.18;5.65;;;;;;;6.70;100.00;100949.97;5134964;27;20054;-81
2022/11/28 01:50:37;;;;;;;11.20;6.65;;;;;;;5.94;100.00;100825.13;5135292;27;20019;-81
2022/11/28 01:53:07;;;;;;;9.15;6.03;;;;;;;6.48;100.00;100919.28;5134465;27;20030;-82
2022/11/28 01:55:38;;;;;;;9.85;5.95;;;;;;;6.74;100.00;100948.06;5134870;27;20110;-81
2022/11/28 01:58:05;;;;;;;;;;;;;;;6.76;100.00;100947.09;5135378;27;20023;-81
2022/11/28 02:00:33;;;;;;;10.63;5.97;;;;;;;6.48;100.00;100903.03;5134985;27;19915;-80
2022/11/28 02:03:10;;;;;;;9.90;5.60;;;;;;;6.46;100.00;100897.16;5133510;27;20378;-81
2022/11/28 02:05:36;;;;;;;9.13;5.60;;;;;;;6.76;100.00;100953.97;5134827;27;20386;-81
2022/11/28 02:08:02;;;;;;;9.07;5.63;;;;;;;6.56;100.00;100918.94;5134792;27;20062;-81
2022/11/28 02:10:40;;;;;;;10.32;5.78;;;;;;;6.72;100.00;100943.00;5134610;27;20027;-81
2022/11/28 02:13:50;;;;;;;10.50;6.40;;;;;;;6.71;100.00;100943.91;5134632;27;20015;-81
2022/11/28 02:16:32;;;;;;;9.77;5.78;;;;;;;6.70;100.00;100942.25;5091438;28;20389;-81
2022/11/28 02:19:20;;;;;;;11.23;5.72;;;;;;;6.65;100.00;100931.34;5091448;28;20554;-81
2022/11/28 02:22:13;;;;;;;10.68;6.45;;;;;;;6.52;100.00;100918.25;5091624;28;20027;-81
2022/11/28 02:24:56;;;;;;;10.43;5.53;;;;;;;6.16;100.00;100866.00;5091722;28;20028;-80
2022/11/28 02:27:59;;;;;;;11.00;6.07;;;;;;;6.57;100.00;100929.13;5091275;28;20061;-81
2022/11/28 02:30:39;;;;;;;9.30;5.68;;;;;;;6.54;100.00;100924.13;5091422;28;20035;-82
2022/11/28 02:33:23;;;;;;;10.13;5.78;;;;;;;6.54;100.00;100926.69;5091448;28;20480;-79
2022/11/28 02:36:09;;;;;;;11.88;5.85;;;;;;;6.47;100.00;100911.66;5091435;28;20055;-81
2022/11/28 02:39:22;;;;;;;9.95;5.47;;;;;;;6.56;100.00;100931.75;5091264;28;20024;-82
2022/11/28 02:42:01;;;;;;;9.38;5.35;;;;;;;6.55;100.00;100923.25;5073660;28;20131;-80
2022/11/28 02:44:39;;;;;;;10.20;6.53;;;;;;;6.28;100.00;100881.69;5090999;28;20435;-82
2022/11/28 02:47:13;;;;;;;9.73;5.57;;;;;;;6.54;100.00;100924.13;5090193;28;20040;-82
2022/11/28 02:49:48;;;;;;;9.45;5.82;;;;;;;6.31;100.00;100885.88;5071036;28;20032;-81
2022/11/28 02:52:19;;;;;;;10.30;5.82;;;;;;;6.52;100.00;100920.81;5080812;28;20058;-82
2022/11/28 02:54:46;;;;;;;10.20;5.90;;;;;;;6.29;100.00;100885.94;5093266;28;20107;-81
2022/11/28 02:57:11;;;;;;;11.43;5.93;;;;;;;6.51;100.00;100923.47;5092984;28;20369;-82
2022/11/28 02:59:37;;;;;;;12.43;5.65;;;;;;;6.50;100.00;100920.06;5093065;28;20077;-81
2022/11/28 03:02:23;;;;;;;12.68;5.78;;;;;;;6.50;100.00;100914.09;5093365;28;20102;-80
2022/11/28 03:05:19;;;;;;;10.82;5.78;;;;;;;6.49;100.00;100915.84;5096239;28;20024;-81
2022/11/28 03:08:26;;;;;;;11.38;5.85;;;;;;;6.50;100.00;100908.97;5097220;28;20035;-82
2022/11/28 03:11:00;;;;;;;10.88;5.57;;;;;;;6.49;100.00;100909.84;5097070;28;20482;-81
2022/11/28 03:14:00;;;;;;;10.43;5.90;;;;;;;6.39;100.00;100898.31;5097102;28;20028;-80
2022/11/28 03:16:30;;;;;;;9.48;5.60;;;;;;;6.45;100.00;100909.16;5095034;28;20420;-80
2022/11/28 03:19:17;;;;;;;8.35;5.30;;;;;;;6.47;100.00;100911.66;5095075;28;20032;-79
2022/11/28 03:22:06;;;;;;;10.80;5.57;;;;;;;6.31;100.00;100880.75;5094989;28;20028;-80
2022/11/28 03:24:45;;;;;;;9.95;5.38;;;;;;;6.28;100.00;100880.84;5094971;28;20480;-80
2022/11/28 03:27:20;;;;;;;9.45;4.72;;;;;;;6.45;100.00;100911.72;5094443;28;20120;-80
2022/11/28 03:30:00;;;;;;;8.20;5.22;;;;;;;6.47;100.00;100907.34;5094859;28;20407;-79
2022/11/28 03:32:30;;;;;;;8.60;4.65;;;;;;;6.39;100.00;100894.06;5094688;28;20035;-80
2022/11/28 03:35:03;;;;;;;8.63;4.82;;;;;;;6.47;100.00;100916.78;5094575;28;20039;-80
2022/11/28 03:37:34;;;;;;;11.07;5.20;;;;;;;6.35;100.00;100895.06;5094703;28;20035;-78
2022/11/28 03:40:07;;;;;;;9.37;4.97;;;;;;;6.46;100.00;100900.56;5077819;28;20483;-82
2022/11/28 03:42:38;;;;;;;9.05;5.20;;;;;;;6.45;100.00;100906.59;5094513;28;20479;-77
2022/11/28 03:45:11;;;;;;;9.15;5.18;;;;;;;6.35;100.00;100886.56;5094528;28;20020;-83
2022/11/28 03:47:48;;;;;;;8.10;5.22;;;;;;;6.45;100.00;100901.47;5088580;28;20590;-81
2022/11/28 03:50:26;;;;;;;8.07;5.35;;;;;;;6.41;100.00;100897.38;5074167;28;20045;-79
2022/11/28 03:53:01;;;;;;;9.20;5.43;;;;;;;6.14;100.00;100852.44;5085928;28;20097;-79
2022/11/28 03:55:40;;;;;;;7.90;5.15;;;;;;;6.21;100.00;100867.50;5096338;28;20073;-81
2022/11/28 03:58:21;;;;;;;10.10;5.93;;;;;;;5.48;100.00;100745.91;5096302;28;20038;-81
2022/11/28 04:00:59;;;;;;;9.93;6.07;;;;;;;6.36;100.00;100883.91;5096436;28;20379;-79
2022/11/28 04:03:50;;;;;;;9.65;6.03;;;;;;;6.48;100.00;100903.88;5096263;28;20111;-81
2022/11/28 04:06:27;;;;;;;9.10;5.43;;;;;;;6.26;100.00;100867.28;5096293;28;20504;-80
2022/11/28 04:09:13;;;;;;;10.05;5.65;;;;;;;6.36;100.00;100872.81;5096053;28;20031;-78
2022/11/28 04:12:03;;;;;;;8.55;5.07;;;;;;;5.92;100.00;100811.53;5096307;28;20356;-80
2022/11/28 04:14:38;;;;;;;9.27;5.18;;;;;;;6.53;100.00;100908.81;5096187;28;20379;-80
2022/11/28 04:17:26;;;;;;;9.90;5.57;;;;;;;6.52;100.00;100904.59;5094133;28;20024;-80
2022/11/28 04:20:05;;;;;;;8.98;5.53;;;;;;;6.50;100.00;100903.84;5095954;28;20020;-80
2022/11/28 04:22:41;;;;;;;9.90;5.82;;;;;;;6.21;100.00;100861.53;5095928;28;20031;-79
2022/11/28 04:25:12;;;;;;;10.05;5.93;;;;;;;6.33;100.00;100881.50;5095879;28;20020;-80
2022/11/28 04:27:41;;;;;;;10.43;5.32;;;;;;;6.42;100.00;100896.47;5095715;28;20115;-79
2022/11/28 04:30:17;;;;;;;9.40;5.43;;;;;;;5.93;100.00;100823.44;5095694;28;20472;-81
2022/11/28 04:32:50;;;;;;;8.85;5.10;;;;;;;5.83;100.00;100806.78;5095942;28;20055;-80
2022/11/28 04:35:26;;;;;;;9.48;5.32;;;;;;;6.44;100.00;100901.53;5095759;28;20460;-80
2022/11/28 04:37:53;;;;;;;9.23;5.68;;;;;;;6.50;100.00;100907.22;5095420;28;20080;-79
2022/11/28 04:40:22;;;;;;;10.05;6.30;;;;;;;6.26;100.00;100872.41;5095745;28;20035;-80
2022/11/28 04:42:53;;;;;;;9.35;5.18;;;;;;;6.37;100.00;100885.56;5095509;28;20020;-81
2022/11/28 04:45:27;;;;;;;12.07;6.20;;;;;;;6.38;100.00;100889.81;5095522;28;20032;-80
2022/11/28 04:47:53;;;;;;;8.48;5.90;;;;;;;6.50;100.00;100904.66;5106815;27;20039;-80
2022/11/28 04:50:20;;;;;;;8.65;5.55;;;;;;;6.51;100.00;100908.91;5136168;27;20447;-81
2022/11/28 04:52:45;;;;;;;9.15;5.57;;;;;;;6.54;100.00;100905.34;5136268;27;20505;-80
2022/11/28 04:55:26;;;;;;;9.00;5.93;;;;;;;6.39;100.00;100878.66;5136305;27;20023;-79
2022/11/28 04:57:56;;;;;;;8.88;6.00;;;;;;;6.33;100.00;100871.22;5135371;27;20432;-80
2022/11/28 05:00:21;;;;;;;8.75;5.47;;;;;;;6.52;100.00;100909.72;5136174;27;20019;-81
2022/11/28 05:02:50;;;;;;;8.65;5.72;;;;;;;6.52;100.00;100909.72;5136274;27;20455;-79
2022/11/28 05:05:19;;;;;;;8.73;5.55;;;;;;;6.46;100.00;100889.47;5135801;27;20378;-80
2022/11/28 05:07:44;;;;;;;9.40;5.95;;;;;;;6.50;100.00;100904.66;5135967;27;20106;-81
2022/11/28 05:10:11;;;;;;;9.57;5.70;;;;;;;6.47;100.00;100906.50;5136020;27;20054;-80
2022/11/28 05:12:36;;;;;;;9.38;6.43;;;;;;;6.52;100.00;100914.84;5136072;27;20020;-80
2022/11/28 05:15:03;;;;;;;8.60;6.10;;;;;;;6.56;100.00;100921.50;5135801;27;20083;-81
2022/11/28 05:17:28;;;;;;;9.15;6.40;;;;;;;6.37;100.00;100879.63;5135602;27;20070;-81
2022/11/28 05:19:54;;;;;;;11.13;6.50;;;;;;;6.49;100.00;100900.44;5135575;27;20050;-80
2022/11/28 05:22:19;;;;;;;8.90;6.50;;;;;;;6.58;100.00;100917.97;5135798;27;20059;-80
2022/11/28 05:24:44;;;;;;;9.65;6.55;;;;;;;6.61;100.00;100924.72;5135940;27;20474;-80
2022/11/28 05:27:10;;;;;;;10.73;6.93;;;;;;;6.59;100.00;100929.91;5134485;27;20485;-80
2022/11/28 05:29:36;;;;;;;10.13;7.03;;;;;;;6.38;100.00;100891.53;5135555;27;20015;-81
2022/11/28 05:32:02;;;;;;;9.85;7.25;;;;;;;6.59;100.00;100924.78;5135473;27;20026;-82
2022/11/28 05:34:29;;;;;;;9.65;6.80;;;;;;;6.60;100.00;100923.88;5135383;27;20023;-81
2022/11/28 05:36:55;;;;;;;10.48;7.40;;;;;;;6.59;100.00;100919.66;5135682;27;20019;-82
2022/11/28 05:39:21;;;;;;;11.23;7.20;;;;;;;6.60;100.00;100926.44;5135488;27;20034;-82
2022/11/28 05:41:46;;;;;;;10.45;7.55;;;;;;;6.37;100.00;100888.13;5135527;27;20482;-81
2022/11/28 05:44:14;;;;;;;10.68;7.63;;;;;;;6.63;100.00;100933.16;5135406;27;20023;-83
2022/11/28 05:46:40;;;;;;;11.50;7.38;;;;;;;6.64;100.00;100934.81;5135021;27;20015;-83
2022/11/28 05:49:05;;;;;;;11.63;7.97;;;;;;;6.32;100.00;100880.66;5135184;27;20107;-80
2022/11/28 05:51:30;;;;;;;10.18;7.38;;;;;;;6.54;100.00;100918.19;5133884;27;20473;-82
2022/11/28 05:53:56;;;;;;;11.90;7.95;;;;;;;6.63;100.00;100934.91;5135137;27;20106;-81
2022/11/28 05:56:24;;;;;;;12.23;8.27;;;;;;;6.60;100.00;100931.56;5134971;27;20019;-81
2022/11/28 05:58:52;;;;;;;12.18;8.18;;;;;;;6.59;100.00;100931.66;5134839;27;20038;-81
2022/11/28 06:01:20;;;;;;;12.25;8.10;;;;;;;6.59;100.00;100926.50;5134802;27;20486;-81
2022/11/28 06:03:46;;;;;;;11.27;8.23;;;;;;;6.46;100.00;100905.69;5134924;27;20023;-81
2022/11/28 06:06:20;;;;;;;12.55;8.43;;;;;;;6.60;100.00;100923.88;5134727;27;20046;-81
2022/11/28 06:08:48;;;;;;;11.18;8.88;;;;;;;6.63;100.00;100925.47;5134993;27;20035;-81
2022/11/28 06:11:15;;;;;;;11.10;8.13;;;;;;;6.65;100.00;100926.22;5134785;27;20025;-81
2022/11/28 06:13:42;;;;;;;11.55;8.85;;;;;;;6.64;100.00;100923.72;5134760;27;20347;-81
2022/11/28 06:16:09;;;;;;;11.70;8.60;;;;;;;6.65;100.00;100933.91;5134423;27;20020;-81
2022/11/28 06:18:35;;;;;;;11.73;8.82;;;;;;;6.66;100.00;100932.19;5133469;27;20023;-80
2022/11/28 06:21:01;;;;;;;11.40;8.50;;;;;;;6.49;100.00;100909.84;5134625;27;20029;-79
2022/11/28 06:23:27;;;;;;;11.25;8.68;;;;;;;6.38;100.00;100887.22;5134499;27;20462;-81
2022/11/28 06:25:52;;;;;;;11.25;8.70;;;;;;;6.66;100.00;100934.75;5134506;27;20023;-81
2022/11/28 06:28:18;;;;;;;11.45;9.43;;;;;;;6.56;100.00;100913.81;5134331;27;20031;-80
2022/11/28 06:30:43;;;;;;;11.25;8.77;;;;;;;6.53;100.00;100908.81;5134260;27;20023;-81
2022/11/28 06:33:08;;;;;;;11.38;8.98;;;;;;;6.68;100.00;100935.50;5134415;27;20106;-80
2022/11/28 06:35:34;;;;;;;12.65;8.90;;;;;;;6.65;100.00;100940.78;5134234;27;20035;-81
2022/11/28 06:37:59;;;;;;;12.48;9.43;;;;;;;6.41;100.00;100894.81;5134156;27;20024;-81
2022/11/28 06:40:25;;;;;;;11.88;9.15;;;;;;;6.56;100.00;100917.19;5134379;27;20023;-81
2022/11/28 06:42:50;;;;;;;13.50;10.27;;;;;;;6.72;100.00;100942.19;5134320;27;20563;-81
2022/11/28 06:45:16;;;;;;;11.68;9.18;;;;;;;6.51;100.00;100911.47;5134183;27;20041;-81
2022/11/28 06:47:41;;;;;;;12.38;9.75;;;;;;;6.71;100.00;100943.91;5133762;27;20116;-78
2022/11/28 06:50:09;;;;;;;12.60;9.90;;;;;;;6.62;100.00;100926.38;5134135;27;20187;-81
2022/11/28 06:52:34;;;;;;;13.70;9.57;;;;;;;6.73;100.00;100942.13;5134806;27;20038;-81
2022/11/28 06:55:00;;;;;;;12.02;9.23;;;;;;;6.66;100.00;100930.44;5134301;28;20035;-81
2022/11/28 06:57:25;;;;;;;13.63;9.60;;;;;;;6.78;100.00;100936.75;5133966;28;20031;-80
2022/11/28 06:59:51;;;;;;;11.95;9.68;;;;;;;6.73;100.00;100933.59;5133968;28;20023;-81
2022/11/28 07:02:16;;;;;;;13.00;9.48;;;;;;;6.53;100.00;100912.22;5134061;28;20023;-79
2022/11/28 07:04:41;;;;;;;12.73;10.10;;;;;;;6.80;100.00;100945.25;5134195;28;20033;-80
2022/11/28 07:07:07;;;;;;;12.40;9.43;;;;;;;6.75;100.00;100945.44;5134110;28;20035;-81
2022/11/28 07:09:35;;;;;;;12.90;9.40;;;;;;;6.51;100.00;100896.06;5134313;27;20019;-82
2022/11/28 07:12:01;;;;;;;13.00;9.38;;;;;;;6.80;100.00;100940.09;5133888;28;20385;-80
2022/11/28 07:14:26;;;;;;;12.20;9.50;;;;;;;6.76;100.00;100939.41;5134089;28;20028;-81
2022/11/28 07:16:52;;;;;;;13.27;9.85;;;;;;;6.77;100.00;100946.19;5133743;28;20065;-81
2022/11/28 07:19:21;;;;;;;14.18;10.35;;;;;;;6.81;100.00;100957.16;5134004;28;20034;-77
2022/11/28 07:21:48;;;;;;;12.52;9.65;;;;;;;6.81;100.00;100958.00;5133760;27;20019;-80
2022/11/28 07:24:13;;;;;;;13.80;10.85;;;;;;;6.83;100.00;100957.94;5133968;28;20409;-79
2022/11/28 07:26:39;;;;;;;12.75;9.95;;;;;;;6.83;100.00;100955.34;5133876;27;20035;-77
2022/11/28 07:29:06;;;;;;;13.07;10.43;;;;;;;6.83;100.00;100960.50;5134051;28;20073;-81
2022/11/28 07:31:32;;;;;;;12.93;9.57;;;;;;;6.84;100.00;100965.56;5133681;27;20522;-78
2022/11/28 07:34:01;;;;;;;12.05;9.70;;;;;;;6.83;100.00;100963.88;5133834;28;20039;-78
2022/11/28 07:36:27;;;;;;;14.48;11.00;;;;;;;6.84;100.00;100964.72;5133718;28;20413;-78
2022/11/28 07:38:55;;;;;;;14.80;10.68;;;;;;;6.83;100.00;100963.88;5133893;27;20031;-77
2022/11/28 07:41:21;;;;;;;14.65;10.70;;;;;;;6.84;100.00;100970.69;5133933;27;20061;-77
2022/11/28 07:43:48;;;;;;;13.73;10.68;;;;;;;6.87;100.00;100972.28;5133732;27;20019;-77
2022/11/28 07:46:17;;;;;;;14.60;11.35;;;;;;;6.89;100.00;100975.63;5133585;27;20038;-78
2022/11/28 07:48:43;;;;;;;13.57;11.43;;;;;;;6.89;100.00;100980.75;5133383;27;20043;-78
2022/11/28 07:51:12;;;;;;;15.25;10.98;;;;;;;6.90;100.00;100974.72;5135347;27;20144;-79
2022/11/28 07:53:38;;;;;;;15.55;10.93;;;;;;;6.75;100.00;100955.69;5137608;27;20055;-79
2022/11/28 07:56:07;;;;;;;14.43;11.13;;;;;;;6.83;100.00;100963.88;5137549;27;20027;-79
2022/11/28 07:58:33;;;;;;;14.02;11.20;;;;;;;6.91;100.00;100981.53;5137471;27;20028;-78
2022/11/28 08:00:59;;;;;;;15.13;10.70;;;;;;;6.88;100.00;100973.94;5137234;27;20080;-77
2022/11/28 08:03:24;;;;;;;14.25;11.00;;;;;;;6.73;100.00;100961.81;5136221;27;20408;-80
2022/11/28 08:05:50;;;;;;;14.32;11.13;;;;;;;6.90;100.00;100993.53;5136966;27;20401;-80
2022/11/28 08:08:16;;;;;;;14.60;11.00;;;;;;;6.92;100.00;100995.19;5137288;27;20385;-76
2022/11/28 08:10:41;;;;;;;14.52;11.02;;;;;;;6.92;100.00;100995.19;5137153;27;20031;-80
2022/11/28 08:13:07;;;;;;;16.25;11.63;;;;;;;6.83;100.00;100976.72;5137339;27;20079;-81
2022/11/28 08:15:32;;;;;;;14.80;11.75;;;;;;;6.96;100.00;100994.13;5137057;27;20098;-79
2022/11/28 08:17:57;;;;;;;15.20;11.32;;;;;;;6.79;100.00;100961.56;5136903;27;20534;-75
2022/11/28 08:20:22;;;;;;;16.50;11.68;;;;;;;6.96;100.00;100997.53;5136772;27;20019;-78
2022/11/28 08:22:48;;;;;;;14.15;10.98;;;;;;;6.99;100.00;100996.59;5135782;27;20474;-81
2022/11/28 08:25:13;;;;;;;15.85;11.30;;;;;;;7.01;100.00;101003.31;5137131;27;20019;-81
2022/11/28 08:27:39;;;;;;;15.70;12.18;;;;;;;7.05;100.00;100994.56;5137096;27;20394;-80
2022/11/28 08:30:05;;;;;;;15.75;11.93;;;;;;;7.07;100.00;101004.75;5137032;27;20027;-80
2022/11/28 08:32:31;;;;;;;16.98;12.48;;;;;;;7.02;100.00;100988.72;5136616;27;20110;-82
2022/11/28 08:34:56;;;;;;;17.15;12.50;;;;;;;7.12;100.00;100990.81;5136676;27;20055;-81
2022/11/28 08:37:21;;;;;;;15.98;11.98;;;;;;;7.08;100.00;100983.31;5136426;27;20056;-78
2022/11/28 08:39:47;;;;;;;16.42;11.88;;;;;;;7.23;100.00;100999.75;5136782;27;20023;-81
2022/11/28 08:42:12;;;;;;;16.00;11.82;;;;;;;7.27;100.00;101001.25;5136441;27;20459;-81
2022/11/28 08:44:37;;;;;;;16.90;11.65;;;;;;;7.14;100.00;100981.28;5136474;27;20072;-79
2022/11/28 08:47:03;;;;;;;15.98;11.00;;;;;;;7.31;100.00;101008.78;5136168;27;20109;-82
2022/11/28 08:49:28;;;;;;;15.45;11.35;;;;;;;7.34;100.00;101010.34;5136121;27;20043;-81
2022/11/28 08:51:53;;;;;;;16.08;11.57;;;;;;;7.36;100.00;101011.94;5136507;27;20022;-79
2022/11/28 08:54:19;;;;;;;16.33;11.20;;;;;;;7.37;100.00;101011.03;5136520;27;20415;-82
2022/11/28 08:56:46;;;;;;;16.23;11.00;;;;;;;7.38;100.00;101007.59;5136670;27;20020;-76
2022/11/28 08:59:11;;;;;;;15.82;11.43;;;;;;;7.40;100.00;101004.94;5136404;27;20045;-78
2022/11/28 09:01:38;;;;;;;15.23;10.80;;;;;;;7.40;100.00;101003.22;5117099;27;20031;-81
2022/11/28 09:04:03;;;;;;;15.88;11.35;;;;;;;7.17;100.00;100965.72;5135995;27;20024;-80
2022/11/28 09:06:29;;;;;;;16.40;11.73;;;;;;;7.49;100.00;101009.66;5136233;27;20128;-81
2022/11/28 09:08:54;;;;;;;17.33;12.20;;;;;;;7.52;100.00;101000.97;5135880;27;20023;-82
2022/11/28 09:11:21;;;;;;;18.80;13.32;;;;;;;7.56;100.00;101005.03;5136050;27;20462;-81
2022/11/28 09:13:46;;;;;;;17.85;12.05;;;;;;;7.45;100.00;100985.00;5135937;27;20058;-82
2022/11/28 09:16:13;;;;;;;18.48;12.85;;;;;;;7.59;100.00;101008.31;5135871;27;20059;-82
2022/11/28 09:18:38;;;;;;;17.13;12.15;;;;;;;7.60;100.00;101004.84;5135695;27;20084;-77
2022/11/28 09:21:10;;;;;;;18.88;12.52;;;;;;;7.38;100.00;100984.47;5134394;27;20035;-79
2022/11/28 09:23:38;;;;;;;18.58;12.25;;;;;;;7.61;100.00;101023.66;5135581;27;20071;-79
2022/11/28 09:26:09;;;;;;;17.42;12.18;;;;;;;7.60;100.00;101022.00;5135715;27;20031;-77
2022/11/28 09:28:36;;;;;;;19.20;11.98;;;;;;;7.44;100.00;101003.88;5135784;27;20035;-82
2022/11/28 09:31:03;;;;;;;17.13;11.75;;;;;;;7.58;100.00;101016.94;5135408;27;20030;-83
2022/11/28 09:33:29;;;;;;;17.95;12.32;;;;;;;7.66;100.00;101024.25;5135319;27;20527;-79
2022/11/28 09:35:54;;;;;;;17.60;11.68;;;;;;;7.68;100.00;101018.16;5134241;27;20015;-82
2022/11/28 09:38:23;;;;;;;17.88;12.18;;;;;;;7.61;100.00;101014.22;5135319;27;20088;-77
2022/11/28 09:40:50;;;;;;;16.98;11.50;;;;;;;7.68;100.00;101010.44;5135265;27;20027;-83
2022/11/28 09:43:19;;;;;;;18.02;11.15;;;;;;;7.72;100.00;101013.69;5135707;27;20055;-81
2022/11/28 09:45:49;;;;;;;17.42;11.80;;;;;;;7.80;100.00;101026.19;5135075;27;20575;-84
2022/11/28 09:48:26;;;;;;;16.25;11.70;;;;;;;7.84;100.00;101031.09;5134864;27;20058;-81
2022/11/28 09:51:00;;;;;;;17.73;12.38;;;;;;;7.86;100.00;101031.00;5135015;27;20023;-81
2022/11/28 09:53:36;;;;;;;15.63;10.80;;;;;;;7.87;100.00;101038.69;5133836;27;20063;-81
2022/11/28 09:56:10;;;;;;;15.48;11.30;;;;;;;7.89;100.00;101036.03;5135034;27;20019;-81
2022/11/28 09:58:43;;;;;;;16.70;10.27;;;;;;;7.90;100.00;101037.69;5134896;27;20105;-83
2022/11/28 10:02:12;;;;;;;14.82;10.45;;;;;;;7.97;100.00;101044.22;5135031;27;20094;-83
2022/11/28 10:04:48;;;;;;;15.02;10.00;;;;;;;7.99;100.00;101030.34;5071535;28;20039;-82
2022/11/28 10:07:48;;;;;;;15.50;9.93;;;;;;;8.06;100.00;101030.88;5054797;28;20460;-76
2022/11/28 10:10:44;;;;;;;15.65;10.40;;;;;;;8.03;100.00;101024.16;5071604;28;20036;-85
2022/11/28 10:13:40;;;;;;;14.20;10.15;;;;;;;8.05;100.00;101027.47;5070925;28;20107;-82
2022/11/28 10:16:40;;;;;;;14.38;9.65;;;;;;;8.03;100.00;101024.16;5071396;28;20040;-83
2022/11/28 10:19:12;;;;;;;13.65;9.57;;;;;;;8.07;100.00;101022.28;5071386;28;20111;-82
2022/11/28 10:21:43;;;;;;;15.68;10.75;;;;;;;8.08;100.00;101026.50;5071422;28;20020;-81
2022/11/28 10:24:18;;;;;;;14.88;10.60;;;;;;;8.13;100.00;101024.53;5071199;28;20032;-83
2022/11/28 10:26:48;;;;;;;15.57;9.98;;;;;;;8.17;100.00;101030.38;5054329;28;20538;-80
2022/11/28 10:29:32;;;;;;;14.43;9.60;;;;;;;8.18;100.00;101032.84;5071169;28;20042;-83
2022/11/28 10:32:02;;;;;;;14.50;10.00;;;;;;;8.04;100.00;101001.81;5071216;28;20043;-81
2022/11/28 10:34:32;;;;;;;15.90;10.52;;;;;;;8.22;100.00;101023.22;5070883;28;20028;-83
2022/11/28 10:37:03;;;;;;;15.80;10.73;;;;;;;8.24;100.00;101027.38;5071658;28;20063;-83
2022/11/28 10:39:29;;;;;;;14.98;10.25;;;;;;;8.24;100.00;101026.56;5134635;27;20023;-83
2022/11/28 10:42:13;;;;;;;16.17;11.30;;;;;;;8.24;100.00;101026.56;5134221;27;20038;-84
2022/11/28 10:44:57;;;;;;;17.00;10.80;;;;;;;8.26;100.00;101025.59;5134265;27;20028;-81
2022/11/28 10:48:00;;;;;;;17.45;11.50;;;;;;;8.29;100.00;101024.59;5134152;27;20096;-85
2022/11/28 10:50:53;;;;;;;17.10;11.57;;;;;;;8.33;100.00;101031.25;5130901;27;20115;-83
2022/11/28 10:53:31;;;;;;;18.85;12.77;;;;;;;8.35;100.00;101029.44;5134456;27;21017;-81
2022/11/28 10:56:12;;;;;;;18.27;12.68;;;;;;;8.39;100.00;101033.56;5133683;27;20079;-86
2022/11/28 10:58:53;;;;;;;19.63;12.93;;;;;;;8.39;100.00;101036.13;5134163;27;20027;-82
2022/11/28 11:01:20;;;;;;;21.40;13.88;;;;;;;8.40;100.00;101036.94;5134470;27;20031;-83
2022/11/28 11:03:46;;;;;;;20.58;13.13;;;;;;;8.42;100.00;101035.97;5133924;27;20019;-82
2022/11/28 11:06:12;;;;;;;20.40;13.32;;;;;;;8.42;100.00;101029.97;5134164;27;20054;-79
2022/11/28 11:08:39;;;;;;;23.60;14.02;;;;;;;8.46;100.00;101032.34;5133625;27;20110;-83
2022/11/28 11:11:24;;;;;;;21.77;14.88;;;;;;;8.44;100.00;101036.72;5134021;27;20022;-81
2022/11/28 11:14:07;;;;;;;22.70;14.32;;;;;;;8.44;100.00;101038.44;5134121;28;20156;-84
2022/11/28 11:16:51;;;;;;;23.20;14.98;;;;;;;8.42;100.00;101035.97;5134025;27;20034;-85
2022/11/28 11:19:33;;;;;;;24.08;15.57;;;;;;;8.28;100.00;101012.66;5132439;28;20556;-84
2022/11/28 11:22:04;;;;;;;24.10;14.52;;;;;;;8.40;100.00;101029.22;5133940;27;20103;-82
2022/11/28 11:24:37;;;;;;;23.50;15.02;;;;;;;8.43;100.00;101029.91;5134776;27;20116;-81
2022/11/28 11:27:16;;;;;;;25.33;15.70;;;;;;;8.25;100.00;100995.59;5138078;27;20019;-80
2022/11/28 11:29:42;;;;;;;24.83;15.90;;;;;;;8.50;100.00;101027.84;5137692;27;20485;-79
2022/11/28 11:32:20;;;;;;;24.15;15.60;;;;;;;8.55;100.00;101026.72;5138046;27;20035;-82
2022/11/28 11:34:46;;;;;;;26.13;17.00;;;;;;;8.60;100.00;101023.91;5137768;27;20428;-80